Time;durP1;ratioP1;P1;durP2;ratioP2;P2;SDS_P1;SDS_P2;PMS_P1;PMS_P2;Temp;Humidity;BMP_temperature;BMP_pressure;BME280_temperature;BME280_humidity;BME280_pressure;Samples;Min_cycle;Max_cycle;Signal;HPM_P1;HPM_P2
2022/04/23 00:01:34;;;;;;;8.03;5.00;;;;;;;20.01;37.36;100659.91;5049148;28;20085;-74
2022/04/23 00:04:00;;;;;;;5.90;4.57;;;;;;;19.31;38.60;100662.53;5050570;28;20103;-74
2022/04/23 00:06:25;;;;;;;7.37;4.83;;;;;;;19.02;39.60;100662.16;5049098;28;20099;-73
2022/04/23 00:08:50;;;;;;;6.77;4.90;;;;;;;19.44;38.62;100661.00;5048544;28;20063;-74
2022/04/23 00:11:16;;;;;;;7.43;4.97;;;;;;;19.86;37.73;100658.91;5049627;28;20061;-74
2022/04/23 00:13:41;;;;;;;7.90;5.17;;;;;;;19.11;39.32;100656.41;5049492;28;20025;-73
2022/04/23 00:16:07;;;;;;;8.37;5.30;;;;;;;19.39;38.81;100652.41;5050509;28;20029;-74
2022/04/23 00:18:34;;;;;;;7.60;4.90;;;;;;;18.97;39.66;100653.56;5048732;28;20056;-73
2022/04/23 00:20:59;;;;;;;9.90;5.97;;;;;;;19.14;39.19;100655.41;5048141;28;20036;-73
2022/04/23 00:23:25;;;;;;;8.17;5.97;;;;;;;18.97;40.02;100653.56;5050528;28;20493;-74
2022/04/23 00:25:54;;;;;;;8.67;5.80;;;;;;;18.54;40.82;100651.13;5048544;28;20025;-74
2022/04/23 00:28:20;;;;;;;12.93;6.43;;;;;;;19.10;39.91;100648.56;5049716;28;20065;-74
2022/04/23 00:30:45;;;;;;;7.60;5.23;;;;;;;18.53;40.55;100653.84;5048308;28;20035;-73
2022/04/23 00:33:11;;;;;;;8.80;6.13;;;;;;;19.09;39.75;100647.69;5048488;28;20025;-74
2022/04/23 00:35:37;;;;;;;10.20;6.00;;;;;;;19.16;39.54;100642.94;5048844;28;20036;-73
2022/04/23 00:38:05;;;;;;;11.03;6.53;;;;;;;18.78;40.10;100649.13;5049234;28;20705;-74
2022/04/23 00:40:31;;;;;;;10.00;5.93;;;;;;;18.88;40.40;100646.09;5048224;28;20477;-74
2022/04/23 00:42:58;;;;;;;9.80;6.27;;;;;;;19.04;39.93;100644.41;5049999;28;20040;-74
2022/04/23 00:45:27;;;;;;;8.83;5.73;;;;;;;18.96;40.46;100642.13;5049001;28;20104;-73
2022/04/23 00:47:54;;;;;;;9.53;6.17;;;;;;;19.06;39.94;100642.53;5047860;28;20029;-73
2022/04/23 00:50:21;;;;;;;11.53;6.03;;;;;;;19.42;39.74;100639.00;5049096;28;20071;-73
2022/04/23 00:53:04;;;;;;;10.33;6.83;;;;;;;18.92;40.53;100639.72;5048581;28;20028;-73
2022/04/23 00:55:33;;;;;;;9.60;6.43;;;;;;;19.47;39.19;100639.63;5048086;28;20025;-73
2022/04/23 00:57:59;;;;;;;9.87;6.47;;;;;;;19.02;40.47;100638.31;5048678;28;20074;-73
2022/04/23 01:00:25;;;;;;;9.17;6.13;;;;;;;19.45;39.39;100636.22;5048634;28;20067;-74
2022/04/23 01:02:53;;;;;;;9.27;6.10;;;;;;;19.02;39.67;100635.66;5047562;28;20020;-73
2022/04/23 01:05:22;;;;;;;10.40;6.13;;;;;;;18.79;40.59;100634.97;5049051;28;20049;-73
2022/04/23 01:07:48;;;;;;;10.00;5.93;;;;;;;19.09;40.23;100634.44;5051641;28;20140;-73
2022/04/23 01:10:14;;;;;;;10.40;6.63;;;;;;;19.61;38.92;100638.06;5052180;28;20060;-73
2022/04/23 01:12:40;;;;;;;10.50;6.30;;;;;;;18.33;41.34;100620.34;5052120;28;20039;-74
2022/04/23 01:15:07;;;;;;;9.10;6.30;;;;;;;18.63;41.57;100633.97;5052624;28;20048;-75
2022/04/23 01:17:33;;;;;;;11.43;6.63;;;;;;;18.66;41.29;100631.19;5051820;28;20071;-74
2022/04/23 01:20:04;;;;;;;12.00;7.33;;;;;;;18.26;42.48;100625.09;5052498;28;20016;-73
2022/04/23 01:22:30;;;;;;;9.77;7.47;;;;;;;19.02;40.60;100625.06;5052887;28;20215;-73
2022/04/23 01:24:55;;;;;;;11.60;6.97;;;;;;;19.28;40.45;100630.88;5053708;28;20028;-73
2022/04/23 01:27:28;;;;;;;13.33;7.47;;;;;;;19.12;40.75;100634.31;5052239;28;20116;-74
2022/04/23 01:29:55;;;;;;;12.53;7.53;;;;;;;18.57;41.57;100628.94;5052889;28;20029;-74
2022/04/23 01:32:20;;;;;;;13.10;8.17;;;;;;;18.95;40.68;100640.41;5052340;28;20032;-73
2022/04/23 01:34:46;;;;;;;14.83;7.93;;;;;;;19.31;40.31;100636.88;5051833;28;20393;-73
2022/04/23 01:37:12;;;;;;;11.57;7.17;;;;;;;18.77;41.12;100641.25;5052803;28;20024;-74
2022/04/23 01:39:37;;;;;;;12.53;7.80;;;;;;;19.30;40.45;100635.19;5052947;28;20027;-73
2022/04/23 01:42:03;;;;;;;12.53;8.03;;;;;;;18.77;40.99;100636.81;5053753;28;20024;-73
2022/04/23 01:44:28;;;;;;;13.57;7.73;;;;;;;18.58;41.72;100636.81;5034930;28;20036;-72
2022/04/23 01:46:53;;;;;;;14.77;7.83;;;;;;;18.07;42.47;100644.41;5051773;28;20078;-73
2022/04/23 01:49:19;;;;;;;14.00;8.93;;;;;;;17.80;43.75;100647.31;5052077;28;20429;-73
2022/04/23 01:51:44;;;;;;;11.93;7.83;;;;;;;18.80;42.03;100639.31;5050594;28;20025;-73
2022/04/23 01:54:09;;;;;;;15.07;8.60;;;;;;;18.34;42.56;100641.47;5052020;28;20066;-73
2022/04/23 01:56:38;;;;;;;15.37;8.13;;;;;;;17.88;43.81;100643.47;5051889;28;20025;-73
2022/04/23 01:59:03;;;;;;;12.97;7.90;;;;;;;17.71;44.01;100642.41;5051254;28;20021;-75
2022/04/23 02:01:28;;;;;;;16.40;8.83;;;;;;;17.50;44.73;100635.41;5051734;28;20032;-74
2022/04/23 02:03:54;;;;;;;16.17;9.07;;;;;;;17.86;44.14;100637.38;5051251;28;20031;-73
2022/04/23 02:06:19;;;;;;;13.30;8.70;;;;;;;17.78;44.22;100635.09;5052505;28;20017;-73
2022/04/23 02:08:44;;;;;;;15.10;8.73;;;;;;;18.51;42.65;100634.53;5052434;28;20485;-74
2022/04/23 02:11:11;;;;;;;14.60;9.60;;;;;;;17.98;43.65;100631.59;5051487;28;20031;-73
2022/04/23 02:13:36;;;;;;;19.03;9.13;;;;;;;17.69;44.82;100641.63;5051710;28;20536;-73
2022/04/23 02:16:04;;;;;;;15.60;9.37;;;;;;;17.86;44.17;100632.09;5051764;28;20111;-74
2022/04/23 02:18:30;;;;;;;16.67;10.77;;;;;;;17.37;45.28;100633.25;5050302;28;20020;-74
2022/04/23 02:20:56;;;;;;;16.43;10.50;;;;;;;17.68;44.81;100634.63;5050537;28;20048;-74
2022/04/23 02:23:21;;;;;;;16.37;9.70;;;;;;;18.75;42.23;100636.03;5051323;28;20025;-74
2022/04/23 02:25:47;;;;;;;18.17;10.97;;;;;;;18.88;42.42;100633.69;5051679;28;20361;-74
2022/04/23 02:28:12;;;;;;;14.27;9.37;;;;;;;17.42;45.58;100639.22;5051191;28;20033;-73
2022/04/23 02:30:38;;;;;;;20.30;10.40;;;;;;;17.59;45.15;100627.94;5050750;28;20033;-73
2022/04/23 02:33:04;;;;;;;16.47;9.93;;;;;;;17.51;45.19;100639.75;5051781;28;20020;-75
2022/04/23 02:35:31;;;;;;;18.13;9.87;;;;;;;17.46;45.35;100635.53;5052229;28;20374;-73
2022/04/23 02:37:57;;;;;;;15.43;9.73;;;;;;;17.09;45.77;100642.31;5052148;28;20044;-73
2022/04/23 02:40:22;;;;;;;18.57;10.83;;;;;;;17.64;44.59;100638.31;5050462;28;20116;-74
2022/04/23 02:42:50;;;;;;;20.20;10.73;;;;;;;16.78;47.01;100635.56;5050537;28;20025;-73
2022/04/23 02:45:16;;;;;;;19.27;11.27;;;;;;;17.50;45.38;100640.69;5052333;28;20071;-73
2022/04/23 02:47:42;;;;;;;15.20;9.83;;;;;;;17.69;45.06;100643.41;5051099;28;20033;-74
2022/04/23 02:50:09;;;;;;;14.63;9.03;;;;;;;17.42;45.94;100644.50;5051112;28;20075;-74
2022/04/23 02:52:40;;;;;;;18.67;10.63;;;;;;;17.57;45.36;100652.69;5050735;28;20032;-74
2022/04/23 02:55:06;;;;;;;19.97;10.23;;;;;;;18.16;43.97;100644.94;5049950;28;20461;-74
2022/04/23 02:57:32;;;;;;;23.43;11.97;;;;;;;17.67;45.17;100647.88;5050507;28;20055;-73
2022/04/23 02:59:57;;;;;;;15.97;9.80;;;;;;;18.38;43.57;100643.06;5050496;28;20021;-73
2022/04/23 03:02:23;;;;;;;17.03;11.17;;;;;;;17.63;45.83;100648.03;5051734;28;20059;-74
2022/04/23 03:04:48;;;;;;;21.90;11.93;;;;;;;17.67;45.22;100651.41;5050160;28;20025;-73
2022/04/23 03:07:14;;;;;;;16.90;10.57;;;;;;;17.77;45.00;100652.72;5051748;28;20031;-74
2022/04/23 03:09:39;;;;;;;19.73;11.07;;;;;;;17.98;45.05;100652.75;5050732;28;20044;-73
2022/04/23 03:12:05;;;;;;;22.67;11.60;;;;;;;17.70;44.92;100647.78;5051872;28;20025;-73
2022/04/23 03:14:31;;;;;;;19.90;10.50;;;;;;;17.46;45.28;100651.38;5033731;28;20397;-73
2022/04/23 03:16:56;;;;;;;17.47;11.10;;;;;;;17.74;44.86;100639.63;5049554;28;20489;-74
2022/04/23 03:19:21;;;;;;;20.40;11.10;;;;;;;17.94;44.69;100646.75;5051584;28;20021;-73
2022/04/23 03:21:47;;;;;;;20.23;12.23;;;;;;;18.77;42.91;100636.81;5049382;28;20488;-73
2022/04/23 03:24:12;;;;;;;21.30;12.60;;;;;;;18.34;43.25;100633.53;5049948;28;20060;-73
2022/04/23 03:26:38;;;;;;;20.90;12.33;;;;;;;18.53;43.23;100633.50;5050894;28;20036;-74
2022/04/23 03:29:04;;;;;;;19.97;11.63;;;;;;;18.06;44.74;100634.75;5049252;28;20013;-74
2022/04/23 03:31:30;;;;;;;18.40;11.47;;;;;;;17.98;44.79;100642.16;5049095;28;20073;-74
2022/04/23 03:33:55;;;;;;;24.83;12.63;;;;;;;17.68;45.40;100634.63;5049940;28;20112;-73
2022/04/23 03:36:21;;;;;;;19.73;12.50;;;;;;;18.09;44.65;100639.94;5049381;28;20037;-73
2022/04/23 03:38:46;;;;;;;22.00;13.13;;;;;;;18.29;43.96;100646.09;5049561;28;20031;-73
2022/04/23 03:41:12;;;;;;;19.63;12.07;;;;;;;18.56;43.35;100633.41;5050149;28;20025;-74
2022/04/23 03:43:37;;;;;;;17.73;11.70;;;;;;;18.27;44.15;100637.38;5048537;28;20030;-73
2022/04/23 03:46:03;;;;;;;19.67;12.30;;;;;;;17.39;45.96;100634.09;5051698;28;20039;-72
2022/04/23 03:48:28;;;;;;;18.90;11.87;;;;;;;17.45;46.36;100631.16;5050109;28;20400;-72
2022/04/23 03:50:53;;;;;;;22.33;12.13;;;;;;;17.53;46.15;100635.25;5048646;28;20024;-73
2022/04/23 03:53:19;;;;;;;20.77;12.37;;;;;;;18.02;44.61;100627.88;5051211;28;20029;-75
2022/04/23 03:55:44;;;;;;;22.00;12.13;;;;;;;18.19;44.41;100628.91;5048955;28;20033;-73
2022/04/23 03:58:09;;;;;;;22.27;13.13;;;;;;;18.25;43.81;100624.22;5049404;28;20012;-73
2022/04/23 04:00:39;;;;;;;21.90;12.67;;;;;;;17.95;44.48;100621.16;5049470;28;20028;-73
2022/04/23 04:03:05;;;;;;;24.73;13.97;;;;;;;18.40;43.64;100627.94;5049557;28;20021;-73
2022/04/23 04:05:31;;;;;;;21.30;12.60;;;;;;;18.53;43.36;100616.78;5048525;28;20104;-73
2022/04/23 04:07:56;;;;;;;24.70;13.47;;;;;;;18.08;44.70;100622.34;5048829;28;20136;-73
2022/04/23 04:10:23;;;;;;;25.07;14.93;;;;;;;18.27;44.25;100619.72;5049398;28;20547;-73
2022/04/23 04:12:50;;;;;;;23.20;13.40;;;;;;;17.85;45.42;100617.19;5048007;28;20028;-73
2022/04/23 04:15:16;;;;;;;23.97;13.87;;;;;;;17.79;44.76;100613.88;5050759;28;20476;-72
2022/04/23 04:17:44;;;;;;;22.27;14.20;;;;;;;17.37;46.64;100613.94;5048689;28;20040;-72
2022/04/23 04:20:14;;;;;;;21.73;14.37;;;;;;;18.03;44.96;100607.59;5048533;28;20025;-72
2022/04/23 04:22:40;;;;;;;25.13;14.53;;;;;;;17.61;45.74;100601.44;5048517;28;20040;-72
2022/04/23 04:25:07;;;;;;;24.37;14.33;;;;;;;17.37;46.17;100614.78;5050745;28;20446;-73
2022/04/23 04:27:33;;;;;;;24.90;14.40;;;;;;;17.75;45.67;100598.19;5048098;28;20033;-73
2022/04/23 04:30:00;;;;;;;24.67;13.70;;;;;;;17.60;46.44;100599.75;5049000;28;20021;-72
2022/04/23 04:32:26;;;;;;;23.00;13.63;;;;;;;17.60;45.77;100607.69;5048524;28;20025;-73
2022/04/23 04:34:51;;;;;;;26.00;14.70;;;;;;;18.03;44.76;100602.31;5048677;28;20456;-72
2022/04/23 04:37:16;;;;;;;25.50;15.30;;;;;;;17.01;47.58;100591.63;5049076;28;20477;-73
2022/04/23 04:39:42;;;;;;;25.70;14.90;;;;;;;17.46;46.66;100593.25;5047807;28;20013;-72
2022/04/23 04:42:09;;;;;;;27.23;15.40;;;;;;;17.40;46.61;100593.50;5048677;28;20033;-72
2022/04/23 04:44:36;;;;;;;26.70;15.07;;;;;;;17.70;46.04;100582.56;5048940;28;20104;-72
2022/04/23 04:47:02;;;;;;;22.87;14.57;;;;;;;17.72;47.03;100599.22;5049519;28;20113;-72
2022/04/23 04:49:28;;;;;;;26.70;15.83;;;;;;;18.29;44.61;100593.19;5049357;28;20476;-72
2022/04/23 04:51:53;;;;;;;24.97;15.07;;;;;;;17.63;45.82;100596.97;5048870;28;20528;-72
2022/04/23 04:54:21;;;;;;;26.27;14.37;;;;;;;17.77;45.75;100604.28;5048087;28;20025;-72
2022/04/23 04:56:48;;;;;;;24.80;14.63;;;;;;;18.42;44.42;100594.34;5048732;28;20021;-75
2022/04/23 04:59:14;;;;;;;29.17;15.23;;;;;;;17.65;46.24;100600.38;5049186;28;20092;-73
2022/04/23 05:01:39;;;;;;;26.50;15.57;;;;;;;17.77;45.79;100602.50;5047852;28;20025;-73
2022/04/23 05:04:05;;;;;;;28.17;16.07;;;;;;;18.04;45.45;100611.94;5048976;28;20108;-73
2022/04/23 05:06:31;;;;;;;25.60;15.73;;;;;;;18.33;44.29;100615.06;5048807;28;20036;-74
2022/04/23 05:08:56;;;;;;;28.37;14.83;;;;;;;17.20;46.80;100614.59;5048037;28;20021;-73
2022/04/23 05:11:21;;;;;;;28.83;16.27;;;;;;;17.36;47.05;100620.97;5050065;28;20071;-73
2022/04/23 05:13:47;;;;;;;29.83;15.50;;;;;;;17.29;47.29;100622.16;5048147;28;20112;-73
2022/04/23 05:16:12;;;;;;;24.57;14.80;;;;;;;16.86;47.87;100629.16;5047915;28;20155;-73
2022/04/23 05:18:37;;;;;;;27.97;15.60;;;;;;;18.28;44.75;100617.91;5048111;28;20091;-74
2022/04/23 05:21:04;;;;;;;27.03;15.37;;;;;;;17.18;47.19;100624.38;5049886;28;20390;-73
2022/04/23 05:23:30;;;;;;;28.93;16.83;;;;;;;17.83;45.97;100621.66;5049207;28;20071;-73
2022/04/23 05:25:55;;;;;;;25.80;15.13;;;;;;;17.46;47.17;100622.31;5048244;28;20434;-73
2022/04/23 05:28:21;;;;;;;27.27;15.93;;;;;;;17.67;46.36;100611.75;5048596;28;20115;-74
2022/04/23 05:30:46;;;;;;;27.43;16.03;;;;;;;17.63;47.23;100621.59;5047170;28;20021;-73
2022/04/23 05:33:12;;;;;;;26.27;15.00;;;;;;;17.71;46.44;100620.41;5048700;28;20024;-73
2022/04/23 05:35:38;;;;;;;27.87;17.17;;;;;;;17.35;47.56;100621.91;5047208;28;20480;-73
2022/04/23 05:38:04;;;;;;;23.10;14.73;;;;;;;17.37;47.46;100614.78;5049961;28;20075;-73
2022/04/23 05:40:33;;;;;;;27.90;16.47;;;;;;;17.68;46.48;100624.06;5048446;28;20029;-74
2022/04/23 05:42:58;;;;;;;28.87;16.70;;;;;;;18.21;44.93;100613.84;5030917;28;20128;-73
2022/04/23 05:45:24;;;;;;;30.70;16.03;;;;;;;17.79;45.97;100624.44;5048716;28;20099;-73
2022/04/23 05:47:50;;;;;;;27.43;16.30;;;;;;;18.00;45.12;100618.28;5048030;28;20413;-72
2022/04/23 05:50:16;;;;;;;27.40;16.00;;;;;;;18.34;45.24;100628.25;5048061;28;20029;-73
2022/04/23 05:52:41;;;;;;;29.53;16.17;;;;;;;18.02;45.84;100627.88;5048074;28;20036;-74
2022/04/23 05:55:08;;;;;;;28.23;15.37;;;;;;;17.60;46.74;100626.16;5051941;28;20021;-72
2022/04/23 05:57:33;;;;;;;26.83;15.50;;;;;;;17.85;46.01;100625.97;5052448;28;20029;-73
2022/04/23 05:59:59;;;;;;;25.67;15.30;;;;;;;18.02;46.18;100627.03;5052901;28;20028;-73
2022/04/23 06:02:24;;;;;;;28.17;15.47;;;;;;;17.18;47.54;100634.97;5053031;28;20040;-73
2022/04/23 06:04:50;;;;;;;29.43;16.53;;;;;;;18.17;45.93;100630.78;5050434;28;20532;-73
2022/04/23 06:07:16;;;;;;;26.60;15.77;;;;;;;18.17;45.63;100633.44;5051356;28;20397;-73
2022/04/23 06:09:42;;;;;;;28.00;16.00;;;;;;;17.78;46.62;100633.28;5050899;28;20040;-73
2022/04/23 06:12:08;;;;;;;30.03;15.53;;;;;;;18.52;45.18;100636.25;5052243;28;20112;-73
2022/04/23 06:14:33;;;;;;;25.87;16.13;;;;;;;18.37;45.60;100632.50;5051114;28;20107;-72
2022/04/23 06:16:59;;;;;;;27.10;16.20;;;;;;;18.38;45.21;100629.81;5051217;28;20032;-72
2022/04/23 06:19:24;;;;;;;28.00;16.33;;;;;;;19.22;43.10;100631.19;5050824;28;20397;-73
2022/04/23 06:21:50;;;;;;;25.23;15.57;;;;;;;18.79;43.93;100629.66;5052362;28;20497;-73
2022/04/23 06:24:15;;;;;;;26.73;16.77;;;;;;;18.75;44.04;100628.09;5051128;28;20033;-73
2022/04/23 06:26:41;;;;;;;24.67;15.43;;;;;;;18.00;45.41;100613.88;5049957;28;20067;-73
2022/04/23 06:29:06;;;;;;;24.80;14.93;;;;;;;18.40;44.87;100621.81;5051194;28;20024;-73
2022/04/23 06:31:31;;;;;;;27.30;15.27;;;;;;;17.63;47.24;100623.38;5051000;28;20052;-73
2022/04/23 06:33:57;;;;;;;28.93;14.67;;;;;;;17.90;46.24;100616.06;5051678;28;20020;-73
2022/04/23 06:36:22;;;;;;;27.30;16.77;;;;;;;18.39;45.46;100620.94;5051247;28;20754;-73
2022/04/23 06:38:48;;;;;;;27.63;15.63;;;;;;;19.04;44.02;100625.88;5050630;28;20029;-72
2022/04/23 06:41:13;;;;;;;25.67;15.70;;;;;;;18.46;44.95;100611.81;5051122;28;20056;-73
2022/04/23 06:43:39;;;;;;;26.63;16.10;;;;;;;18.35;45.34;100607.94;5051970;28;20028;-73
2022/04/23 06:46:04;;;;;;;25.70;16.00;;;;;;;19.00;43.58;100619.00;5050405;28;20385;-73
2022/04/23 06:48:30;;;;;;;25.87;14.97;;;;;;;19.38;42.72;100610.94;5050605;28;20072;-72
2022/04/23 06:50:55;;;;;;;24.77;15.67;;;;;;;18.20;44.87;100604.19;5050577;28;20025;-73
2022/04/23 06:53:20;;;;;;;24.73;16.07;;;;;;;18.54;44.48;100607.94;5033625;28;20041;-73
2022/04/23 06:55:46;;;;;;;25.57;16.07;;;;;;;19.60;42.29;100610.69;5050543;28;20029;-73
2022/04/23 06:58:11;;;;;;;23.43;15.23;;;;;;;19.25;43.19;100607.22;5050732;28;20024;-73
2022/04/23 07:00:40;;;;;;;29.13;14.83;;;;;;;18.33;44.39;100594.78;5049301;28;20036;-72
2022/04/23 07:03:06;;;;;;;21.67;14.53;;;;;;;18.42;44.71;100604.06;5052338;28;20024;-73
2022/04/23 07:05:31;;;;;;;25.80;15.60;;;;;;;18.77;44.04;100609.50;5050460;28;20025;-73
2022/04/23 07:08:01;;;;;;;24.63;15.63;;;;;;;19.20;43.29;100614.50;5049741;28;20427;-73
2022/04/23 07:10:29;;;;;;;24.33;13.47;;;;;;;18.22;45.17;100618.22;5050453;28;20029;-72
2022/04/23 07:12:55;;;;;;;23.77;14.97;;;;;;;19.43;42.88;100608.06;5051457;28;20217;-72
2022/04/23 07:15:22;;;;;;;24.17;14.38;;;;;;;20.06;40.67;100591.56;5050000;28;20178;-72
2022/04/23 07:17:48;;;;;;;18.83;12.07;;;;;;;20.29;39.95;100592.97;5051341;28;20017;-73
2022/04/23 07:20:14;;;;;;;22.13;13.80;;;;;;;21.39;38.04;100605.41;5050310;28;20040;-73
2022/04/23 07:22:39;;;;;;;19.30;12.95;;;;;;;23.72;34.05;100603.13;5049157;28;20084;-73
2022/04/23 07:25:08;;;;;;;19.35;12.13;;;;;;;24.68;32.48;100599.09;5051727;28;20033;-73
2022/04/23 07:27:33;;;;;;;20.58;12.40;;;;;;;25.07;31.51;100597.09;5049910;28;20036;-72
2022/04/23 07:29:59;;;;;;;17.17;11.13;;;;;;;24.59;31.88;100586.38;5050607;28;20530;-73
2022/04/23 07:32:25;;;;;;;18.38;12.32;;;;;;;25.83;30.28;100589.56;5050174;28;20021;-73
2022/04/23 07:37:38;;;;;;;17.70;10.38;;;;;;;24.35;31.64;100595.22;5051559;28;20040;-73
2022/04/23 07:40:05;;;;;;;19.58;12.15;;;;;;;24.79;31.36;100587.63;5083513;28;20572;-73
2022/04/23 07:42:31;;;;;;;18.98;11.70;;;;;;;25.02;30.87;100588.59;5049348;28;20111;-73
2022/04/23 07:44:57;;;;;;;18.15;11.23;;;;;;;24.97;30.74;100586.25;5049675;28;20425;-73
2022/04/23 07:47:23;;;;;;;15.68;10.88;;;;;;;24.73;30.89;100591.63;5050082;28;20112;-73
2022/04/23 07:49:48;;;;;;;15.45;11.02;;;;;;;24.16;31.65;100577.84;5048899;28;20029;-72
2022/04/23 07:52:14;;;;;;;16.20;11.57;;;;;;;24.30;31.65;100586.69;5051083;28;20040;-73
2022/04/23 07:54:39;;;;;;;16.73;11.68;;;;;;;24.66;30.95;100582.31;5051240;28;20029;-73
2022/04/23 07:57:08;;;;;;;16.77;11.38;;;;;;;24.50;31.36;100583.41;5049266;28;20029;-73
2022/04/23 07:59:37;;;;;;;15.75;11.90;;;;;;;24.46;31.69;100571.25;5049450;28;20028;-73
2022/04/23 08:02:03;;;;;;;20.70;12.80;;;;;;;25.93;29.53;100583.50;5049775;28;20079;-74
2022/04/23 08:04:29;;;;;;;17.13;10.55;;;;;;;24.48;31.25;100579.16;5049019;28;20378;-74
2022/04/23 08:06:54;;;;;;;17.20;11.70;;;;;;;24.97;30.55;100574.72;5049053;28;20116;-73
2022/04/23 08:09:19;;;;;;;17.08;11.52;;;;;;;25.97;29.22;100563.53;5050774;28;20091;-74
2022/04/23 08:11:45;;;;;;;18.27;12.40;;;;;;;25.07;30.45;100570.38;5048517;28;20090;-73
2022/04/23 08:14:10;;;;;;;16.17;11.18;;;;;;;24.95;30.64;100581.97;5049486;28;20075;-74
2022/04/23 08:16:35;;;;;;;18.85;11.35;;;;;;;26.24;28.50;100565.84;5048310;28;20029;-73
2022/04/23 08:19:01;;;;;;;15.70;10.38;;;;;;;26.69;28.02;100564.91;5050172;28;20037;-74
2022/04/23 08:21:26;;;;;;;16.02;11.45;;;;;;;26.45;28.39;100557.91;5050436;28;20524;-74
2022/04/23 08:23:52;;;;;;;16.38;11.35;;;;;;;25.05;29.60;100550.94;5048894;28;20028;-74
2022/04/23 08:26:17;;;;;;;14.75;10.65;;;;;;;25.30;30.25;100557.09;5050123;28;20028;-74
2022/04/23 08:31:27;;;;;;;20.58;11.48;;;;;;;25.79;29.47;100560.47;5050066;28;20052;-74
2022/04/23 08:33:58;;;;;;;15.18;11.00;;;;;;;25.70;28.98;100552.19;5050212;28;20033;-75
2022/04/23 08:36:37;;;;;;;16.02;10.73;;;;;;;26.95;27.27;100559.25;5049393;28;20039;-73
2022/04/23 08:39:04;;;;;;;20.65;11.07;;;;;;;26.00;29.13;100547.22;5082255;28;20082;-73
2022/04/23 08:41:31;;;;;;;14.57;11.18;;;;;;;26.78;27.24;100553.47;5049087;28;20028;-75
2022/04/23 08:44:05;;;;;;;13.23;9.80;;;;;;;24.86;29.91;100552.31;5049212;28;20024;-73
2022/04/23 08:46:32;;;;;;;17.50;11.18;;;;;;;26.15;28.10;100561.25;5048092;28;20094;-73
2022/04/23 08:49:10;;;;;;;14.63;10.73;;;;;;;27.63;26.75;100553.53;5049001;28;20037;-73
2022/04/23 08:51:37;;;;;;;14.13;10.00;;;;;;;26.33;28.43;100550.88;5050294;28;20036;-74
2022/04/23 08:54:10;;;;;;;16.20;10.93;;;;;;;28.08;26.30;100547.81;5048647;28;20025;-73
2022/04/23 08:56:44;;;;;;;15.48;10.73;;;;;;;27.18;27.10;100550.13;5048734;28;20104;-74
2022/04/23 08:59:15;;;;;;;15.30;10.82;;;;;;;27.90;26.24;100545.75;5032488;28;20021;-73
2022/04/23 09:01:40;;;;;;;14.32;11.05;;;;;;;28.29;25.72;100530.78;5049125;28;20048;-74
2022/04/23 09:04:08;;;;;;;16.38;11.13;;;;;;;29.48;24.70;100539.59;5049072;28;20546;-73
2022/04/23 09:06:34;;;;;;;13.82;10.00;;;;;;;27.24;26.51;100536.19;5048113;28;20114;-73
2022/04/23 09:09:10;;;;;;;14.68;10.55;;;;;;;28.81;24.90;100542.22;5048368;28;20075;-72
2022/04/23 09:11:37;;;;;;;13.20;10.18;;;;;;;28.70;24.52;100547.69;5049751;28;20045;-73
2022/04/23 09:14:06;;;;;;;14.13;10.73;;;;;;;29.35;24.50;100547.16;5049699;28;20029;-73
2022/04/23 09:25:10;;;;;;;16.05;10.40;;;;;;;27.04;26.50;100542.41;5050585;28;20630;-73
2022/04/23 09:27:41;;;;;;;16.70;11.32;;;;;;;26.72;27.22;100545.91;5050499;28;20021;-74
2022/04/23 09:30:07;;;;;;;14.15;10.05;;;;;;;25.18;29.16;100546.38;5052866;28;20025;-73
2022/04/23 09:32:33;;;;;;;13.68;10.40;;;;;;;25.36;28.80;100548.63;5052452;28;20557;-73
2022/04/23 09:35:11;;;;;;;20.27;11.95;;;;;;;26.28;28.11;100539.69;5053031;28;20029;-73
2022/04/23 09:40:24;;;;;;;15.88;11.68;;;;;;;25.31;29.66;100545.44;5053975;28;20043;-73
2022/04/23 09:42:57;;;;;;;16.10;11.07;;;;;;;25.62;29.63;100537.72;5051187;28;20037;-73
2022/04/23 09:45:26;;;;;;;18.17;11.32;;;;;;;24.65;30.71;100540.56;5053937;28;20108;-74
2022/04/23 09:47:52;;;;;;;16.25;11.80;;;;;;;25.13;30.49;100543.19;5051797;28;20036;-74
2022/04/23 09:50:18;;;;;;;15.73;11.00;;;;;;;24.24;30.88;100537.25;5052692;28;20054;-74
2022/04/23 09:52:45;;;;;;;18.75;12.68;;;;;;;24.45;30.92;100545.50;5051770;28;20035;-73
2022/04/23 09:55:11;;;;;;;17.02;12.20;;;;;;;25.82;29.17;100550.38;5052003;28;20090;-74
2022/04/23 09:57:38;;;;;;;16.30;11.32;;;;;;;24.03;31.47;100547.66;5052517;28;20103;-73
2022/04/23 10:00:06;;;;;;;15.43;11.38;;;;;;;25.09;30.20;100552.41;5053457;28;20097;-73
2022/04/23 10:02:32;;;;;;;18.95;11.13;;;;;;;27.57;26.80;100550.41;5034872;28;20060;-74
2022/04/23 10:05:01;;;;;;;14.57;9.77;;;;;;;26.80;27.65;100546.13;5051449;28;20056;-74
2022/04/23 10:07:29;;;;;;;14.50;10.90;;;;;;;25.64;29.43;100536.63;5053570;28;20029;-74
2022/04/23 10:10:00;;;;;;;16.48;11.50;;;;;;;25.84;28.80;100536.88;5034544;28;20051;-73
2022/04/23 10:12:32;;;;;;;17.02;11.98;;;;;;;26.63;28.28;100535.97;5052087;28;20021;-73
2022/04/23 10:15:00;;;;;;;16.17;11.40;;;;;;;27.17;27.13;100543.03;5051695;28;20086;-74
2022/04/23 10:17:28;;;;;;;17.05;12.32;;;;;;;27.03;27.66;100540.69;5051264;28;20538;-74
2022/04/23 10:19:58;;;;;;;16.42;11.90;;;;;;;27.05;27.58;100544.94;5051224;28;20028;-74
2022/04/23 10:22:31;;;;;;;15.18;11.25;;;;;;;28.05;26.26;100538.19;5051394;28;20110;-74
2022/04/23 10:25:24;;;;;;;16.48;11.40;;;;;;;28.05;26.70;100534.66;5050873;28;20032;-73
2022/04/23 10:27:53;;;;;;;15.45;10.63;;;;;;;26.24;28.16;100541.75;5051137;28;20092;-74
2022/04/23 10:30:19;;;;;;;18.27;11.98;;;;;;;27.78;26.59;100528.03;5051677;28;20036;-73
2022/04/23 10:32:44;;;;;;;16.73;11.82;;;;;;;28.37;25.95;100547.03;5051440;28;20025;-74
2022/04/23 10:35:18;;;;;;;17.20;11.77;;;;;;;26.90;27.15;100541.72;5053068;28;20037;-74
2022/04/23 10:37:50;;;;;;;17.42;12.65;;;;;;;28.64;25.47;100538.34;5052199;28;20108;-74
2022/04/23 10:40:20;;;;;;;17.10;11.90;;;;;;;26.21;27.97;100545.53;5049996;28;20384;-73
2022/04/23 10:43:04;;;;;;;18.98;12.63;;;;;;;26.56;27.60;100539.13;5050589;28;20032;-73
2022/04/23 10:45:37;;;;;;;20.25;12.15;;;;;;;26.61;27.58;100535.22;5051671;28;20112;-74
2022/04/23 10:48:24;;;;;;;17.83;13.35;;;;;;;26.12;28.46;100540.94;5051228;28;20025;-74
2022/04/23 10:50:59;;;;;;;22.65;12.88;;;;;;;27.16;27.51;100533.31;5050314;28;20159;-73
2022/04/23 10:53:37;;;;;;;20.52;12.80;;;;;;;27.07;27.33;100531.41;5050563;28;20519;-72
2022/04/23 10:56:10;;;;;;;15.07;11.63;;;;;;;28.15;26.24;100522.13;5052514;28;20131;-73
2022/04/23 10:58:40;;;;;;;17.80;12.13;;;;;;;29.87;24.20;100517.94;5052086;28;20040;-73
2022/04/23 11:01:25;;;;;;;18.75;11.52;;;;;;;30.40;23.97;100515.50;5051866;28;20025;-73
2022/04/23 11:04:06;;;;;;;15.52;10.70;;;;;;;30.56;22.38;100515.72;5051595;28;20021;-74
2022/04/23 11:12:32;;;;;;;15.90;12.80;;;;;;;28.67;24.75;100513.03;5052271;28;20120;-72
2022/04/23 11:14:58;;;;;;;17.45;12.18;;;;;;;27.32;26.13;100524.78;5051493;28;20093;-73
2022/04/23 11:17:36;;;;;;;16.98;11.48;;;;;;;28.22;25.95;100511.66;5050746;28;20025;-73
2022/04/23 11:20:02;;;;;;;17.23;11.65;;;;;;;27.65;25.82;100505.94;5050587;28;20033;-73
2022/04/23 11:22:28;;;;;;;16.75;12.07;;;;;;;27.73;26.43;100511.47;5049512;28;20581;-72
2022/04/23 11:24:54;;;;;;;18.98;12.77;;;;;;;27.36;26.96;100520.91;5050156;28;20031;-73
2022/04/23 11:27:38;;;;;;;18.92;12.13;;;;;;;28.29;25.55;100514.66;5049828;28;20040;-72
2022/04/23 11:30:07;;;;;;;19.90;13.35;;;;;;;27.57;26.31;100509.28;5050302;28;20055;-73
2022/04/23 11:32:34;;;;;;;17.75;13.43;;;;;;;29.76;24.05;100504.66;5049997;28;20021;-73
2022/04/23 11:35:03;;;;;;;16.73;12.55;;;;;;;28.69;25.02;100509.22;5049373;28;20025;-73